Time;durP1;ratioP1;P1;durP2;ratioP2;P2;SDS_P1;SDS_P2;PMS_P1;PMS_P2;Temp;Humidity;BMP_temperature;BMP_pressure;BME280_temperature;BME280_humidity;BME280_pressure;Samples;Min_cycle;Max_cycle;Signal;HPM_P1;HPM_P2
2024/03/05 00:00:59;;;;;;;51.58;21.48;;;5.70;99.90;;;;;;5010628;28;20033;-55
2024/03/05 00:03:25;;;;;;;52.75;22.15;;;5.70;99.90;;;;;;5011074;28;20388;-55
2024/03/05 00:05:50;;;;;;;46.92;21.20;;;5.70;99.90;;;;;;5008439;28;20494;-55
2024/03/05 00:08:16;;;;;;;45.05;20.30;;;5.60;99.90;;;;;;5009676;28;20490;-55
2024/03/05 00:10:42;;;;;;;49.97;22.23;;;5.60;99.90;;;;;;5014643;28;20042;-55
2024/03/05 00:13:08;;;;;;;49.28;20.70;;;5.50;99.90;;;;;;5010680;28;20040;-53
2024/03/05 00:15:34;;;;;;;54.83;22.92;;;5.50;99.90;;;;;;5009669;28;20033;-53
2024/03/05 00:17:59;;;;;;;47.05;21.17;;;5.50;99.90;;;;;;5007728;28;20307;-55
2024/03/05 00:20:25;;;;;;;49.22;21.73;;;5.40;99.90;;;;;;5009687;28;20108;-55
2024/03/05 00:22:51;;;;;;;59.13;22.70;;;5.40;99.90;;;;;;5008384;28;20105;-50
2024/03/05 00:25:17;;;;;;;63.67;24.02;;;5.50;99.90;;;;;;5004822;28;20029;-56
2024/03/05 00:27:44;;;;;;;60.25;23.92;;;5.40;99.90;;;;;;5006168;28;20045;-51
2024/03/05 00:30:12;;;;;;;63.92;23.30;;;5.40;99.90;;;;;;5002001;28;20034;-51
2024/03/05 00:32:39;;;;;;;53.28;21.95;;;5.40;99.90;;;;;;5003581;28;20480;-52
2024/03/05 00:35:09;;;;;;;62.17;23.35;;;5.30;99.90;;;;;;5004670;28;20041;-51
2024/03/05 00:37:38;;;;;;;63.90;23.02;;;5.30;99.90;;;;;;5006222;28;20474;-52
2024/03/05 00:40:08;;;;;;;60.08;23.30;;;5.20;99.90;;;;;;5002546;28;20029;-50
2024/03/05 00:42:34;;;;;;;63.13;22.60;;;5.20;99.90;;;;;;5001933;28;20029;-55
2024/03/05 00:45:00;;;;;;;59.58;23.13;;;5.10;99.90;;;;;;5019712;28;20513;-53
2024/03/05 00:47:26;;;;;;;65.25;25.05;;;5.10;99.90;;;;;;5003802;28;20022;-54
2024/03/05 00:49:51;;;;;;;67.55;23.70;;;5.10;99.90;;;;;;5002461;28;20022;-55
2024/03/05 00:52:17;;;;;;;71.50;26.08;;;5.10;99.90;;;;;;5004040;28;20373;-55
2024/03/05 00:54:45;;;;;;;65.53;24.90;;;5.10;99.90;;;;;;5009659;28;20029;-52
2024/03/05 00:57:11;;;;;;;73.93;25.27;;;5.10;99.90;;;;;;5011751;28;20533;-54
2024/03/05 00:59:37;;;;;;;71.65;24.80;;;5.00;99.90;;;;;;5008264;28;20163;-54
2024/03/05 01:02:03;;;;;;;67.65;25.58;;;5.10;99.90;;;;;;5007134;28;20029;-54
2024/03/05 01:04:29;;;;;;;75.22;25.48;;;5.10;99.90;;;;;;5010448;28;20559;-50
2024/03/05 01:06:56;;;;;;;67.32;24.48;;;5.10;99.90;;;;;;5011185;28;20571;-50
2024/03/05 01:09:24;;;;;;;70.80;26.70;;;5.10;99.90;;;;;;5006060;28;20037;-54
2024/03/05 01:11:52;;;;;;;62.75;25.23;;;5.10;99.90;;;;;;5009160;28;20108;-54
2024/03/05 01:14:18;;;;;;;72.25;27.25;;;5.20;99.90;;;;;;4990105;28;20125;-53
2024/03/05 01:16:43;;;;;;;70.15;25.80;;;5.20;99.90;;;;;;5007316;28;20034;-52
2024/03/05 01:19:12;;;;;;;69.38;25.13;;;5.30;99.90;;;;;;5009489;28;20064;-50
2024/03/05 01:21:37;;;;;;;71.05;25.60;;;5.40;99.90;;;;;;5007056;28;20404;-51
2024/03/05 01:24:04;;;;;;;59.85;24.92;;;5.50;99.90;;;;;;5007483;28;20037;-55
2024/03/05 01:26:29;;;;;;;67.40;25.42;;;5.60;99.90;;;;;;5006911;28;20480;-57
2024/03/05 01:28:55;;;;;;;64.78;24.65;;;5.70;99.90;;;;;;5006784;28;20064;-55
2024/03/05 01:31:22;;;;;;;63.72;25.77;;;5.70;99.90;;;;;;5007411;28;20391;-59
2024/03/05 01:33:48;;;;;;;65.88;24.48;;;5.80;99.90;;;;;;5000437;28;20030;-56
2024/03/05 01:36:15;;;;;;;68.55;23.92;;;5.80;99.90;;;;;;5006855;28;20403;-60
2024/03/05 01:38:41;;;;;;;59.47;23.25;;;5.80;99.90;;;;;;5009790;28;20457;-59
2024/03/05 01:41:07;;;;;;;67.70;26.00;;;5.80;99.90;;;;;;5008994;28;20022;-61
2024/03/05 01:43:33;;;;;;;70.05;27.13;;;5.90;99.90;;;;;;5006190;28;20076;-59
2024/03/05 01:45:59;;;;;;;61.95;24.63;;;5.90;99.90;;;;;;5006580;28;20034;-57
2024/03/05 01:48:26;;;;;;;58.92;24.48;;;5.90;99.90;;;;;;5007303;28;20089;-58
2024/03/05 01:50:52;;;;;;;57.15;22.88;;;6.00;99.90;;;;;;5004227;28;20115;-58
2024/03/05 01:53:18;;;;;;;62.35;24.60;;;6.00;99.90;;;;;;5004889;28;20116;-60
2024/03/05 01:55:46;;;;;;;60.75;25.17;;;6.00;99.90;;;;;;5001274;28;20683;-55
2024/03/05 01:58:14;;;;;;;62.83;24.20;;;6.00;99.90;;;;;;5003708;28;20057;-55
2024/03/05 02:00:40;;;;;;;58.60;24.17;;;5.90;99.90;;;;;;4999328;28;20053;-60
2024/03/05 02:03:06;;;;;;;57.90;23.40;;;5.90;99.90;;;;;;5004462;28;20014;-58
2024/03/05 02:05:32;;;;;;;56.00;23.27;;;5.90;99.90;;;;;;5006622;28;20045;-57
2024/03/05 02:07:58;;;;;;;56.75;24.60;;;5.90;99.90;;;;;;5008632;28;20030;-51
2024/03/05 02:10:26;;;;;;;58.42;25.20;;;6.00;99.90;;;;;;5002996;28;20077;-52
2024/03/05 02:12:52;;;;;;;63.63;24.17;;;6.00;99.90;;;;;;5005507;28;20026;-51
2024/03/05 02:15:19;;;;;;;60.63;24.25;;;6.00;99.90;;;;;;5007383;28;20547;-52
2024/03/05 02:17:45;;;;;;;57.63;23.05;;;5.90;99.90;;;;;;5003202;28;20034;-50
2024/03/05 02:20:14;;;;;;;54.60;23.33;;;5.80;99.90;;;;;;5007868;28;20022;-52
2024/03/05 02:22:41;;;;;;;53.58;21.77;;;5.70;99.90;;;;;;5006868;28;20122;-50
2024/03/05 02:25:07;;;;;;;51.58;21.92;;;5.60;99.90;;;;;;5004776;28;20555;-52
2024/03/05 02:27:35;;;;;;;55.72;23.05;;;5.50;99.90;;;;;;5005550;28;20705;-52
2024/03/05 02:30:02;;;;;;;53.30;22.17;;;5.40;99.90;;;;;;4987671;28;20061;-52
2024/03/05 02:32:29;;;;;;;64.60;22.60;;;5.30;99.90;;;;;;5006721;28;20042;-51
2024/03/05 02:34:54;;;;;;;65.60;23.70;;;5.30;99.90;;;;;;5009413;28;20026;-51
2024/03/05 02:37:21;;;;;;;60.03;24.40;;;5.20;99.90;;;;;;5013191;28;20026;-55
2024/03/05 02:39:47;;;;;;;67.78;24.60;;;5.20;99.90;;;;;;5016529;28;20033;-51
2024/03/05 02:42:13;;;;;;;67.72;24.02;;;5.10;99.90;;;;;;5012654;28;20121;-52
2024/03/05 02:44:39;;;;;;;64.55;24.52;;;5.10;99.90;;;;;;5010996;28;20101;-51
2024/03/05 02:47:07;;;;;;;68.53;24.25;;;5.10;99.90;;;;;;5012017;28;20030;-55
2024/03/05 02:49:34;;;;;;;68.57;23.58;;;5.10;99.90;;;;;;5012771;28;20026;-51
2024/03/05 02:51:59;;;;;;;64.68;23.95;;;5.10;99.90;;;;;;5011062;28;20518;-51
2024/03/05 02:54:25;;;;;;;66.03;25.17;;;5.10;99.90;;;;;;5010957;28;20033;-52
2024/03/05 02:56:51;;;;;;;74.22;24.88;;;5.10;99.90;;;;;;5011562;28;20038;-52
2024/03/05 02:59:17;;;;;;;67.05;24.70;;;5.10;99.90;;;;;;5009018;28;20413;-52
2024/03/05 03:01:47;;;;;;;73.00;26.17;;;5.10;99.90;;;;;;5009222;28;20111;-51
2024/03/05 03:04:15;;;;;;;79.97;24.75;;;5.10;99.90;;;;;;5011719;28;20079;-52
2024/03/05 03:06:41;;;;;;;72.78;25.10;;;5.20;99.90;;;;;;5007523;28;20493;-55
2024/03/05 03:09:07;;;;;;;71.82;27.02;;;5.20;99.90;;;;;;5009901;28;20084;-50
2024/03/05 03:11:34;;;;;;;68.07;22.85;;;5.30;99.90;;;;;;5009643;28;20037;-52
2024/03/05 03:14:00;;;;;;;69.22;24.60;;;5.30;99.90;;;;;;5010114;28;20091;-52
2024/03/05 03:16:26;;;;;;;67.07;25.33;;;5.30;99.90;;;;;;5010488;28;20025;-49
2024/03/05 03:18:51;;;;;;;66.32;24.42;;;5.30;99.90;;;;;;5009780;28;20034;-51
2024/03/05 03:21:17;;;;;;;76.95;26.10;;;5.30;99.90;;;;;;5014425;28;20448;-56
2024/03/05 03:23:44;;;;;;;72.25;25.90;;;5.30;99.90;;;;;;5010627;28;20044;-54
2024/03/05 03:26:11;;;;;;;82.80;24.35;;;5.20;99.90;;;;;;5008194;28;20041;-52
2024/03/05 03:28:37;;;;;;;79.43;25.02;;;5.20;99.90;;;;;;5009976;28;20141;-53
2024/03/05 03:31:05;;;;;;;82.82;25.98;;;5.10;99.90;;;;;;5011410;28;20120;-53
2024/03/05 03:33:31;;;;;;;66.90;23.42;;;5.10;99.90;;;;;;5009882;28;20090;-54
2024/03/05 03:35:57;;;;;;;73.55;24.83;;;5.10;99.90;;;;;;5011425;28;20068;-50
2024/03/05 03:38:23;;;;;;;68.85;24.10;;;5.00;99.90;;;;;;5011342;28;20168;-51
2024/03/05 03:40:49;;;;;;;78.55;25.00;;;4.90;99.90;;;;;;5009983;28;20530;-52
2024/03/05 03:43:15;;;;;;;78.32;26.63;;;4.80;99.90;;;;;;5009949;28;20034;-51
2024/03/05 03:45:41;;;;;;;83.72;26.33;;;4.80;99.90;;;;;;5011001;28;20407;-51
2024/03/05 03:48:07;;;;;;;89.28;26.33;;;4.70;99.90;;;;;;5010017;28;20033;-55
2024/03/05 03:50:33;;;;;;;85.47;26.65;;;4.70;99.90;;;;;;5010242;28;20140;-53
2024/03/05 03:52:59;;;;;;;95.18;28.10;;;4.70;99.90;;;;;;5006859;28;20133;-52
2024/03/05 03:55:26;;;;;;;102.50;28.67;;;4.70;99.90;;;;;;5011958;28;20107;-54
2024/03/05 03:57:52;;;;;;;96.78;28.05;;;4.70;99.90;;;;;;5016221;28;20037;-51
2024/03/05 04:00:18;;;;;;;88.57;27.40;;;4.80;99.90;;;;;;5011816;28;20478;-51
2024/03/05 04:02:45;;;;;;;94.70;26.55;;;4.90;99.90;;;;;;5012707;28;20021;-52
2024/03/05 04:05:11;;;;;;;98.53;26.85;;;4.90;99.90;;;;;;5012499;28;20030;-51
2024/03/05 04:07:37;;;;;;;80.20;24.42;;;5.10;99.90;;;;;;5007722;28;20030;-50
2024/03/05 04:10:06;;;;;;;94.55;29.67;;;5.10;99.90;;;;;;5009201;28;20036;-54
2024/03/05 04:12:33;;;;;;;106.53;29.13;;;5.20;99.90;;;;;;5009706;28;20084;-54
2024/03/05 04:14:59;;;;;;;96.35;29.20;;;5.20;99.90;;;;;;5014745;28;20034;-51
2024/03/05 04:17:28;;;;;;;95.75;28.77;;;5.20;99.90;;;;;;5010541;28;20026;-53
2024/03/05 04:19:53;;;;;;;95.03;27.75;;;5.30;99.90;;;;;;5013021;28;20108;-53
2024/03/05 04:22:19;;;;;;;111.07;29.42;;;5.30;99.90;;;;;;5012213;28;20030;-51
2024/03/05 04:24:55;;;;;;;96.85;29.42;;;5.40;99.90;;;;;;5009068;28;20052;-51
2024/03/05 04:27:23;;;;;;;104.80;29.45;;;5.40;99.90;;;;;;5007089;28;20029;-53
2024/03/05 04:29:53;;;;;;;90.90;29.52;;;5.50;99.90;;;;;;5013575;28;20025;-54
2024/03/05 04:32:20;;;;;;;105.57;30.20;;;5.50;99.90;;;;;;5011340;28;20022;-52
2024/03/05 04:34:50;;;;;;;91.85;28.85;;;5.50;99.90;;;;;;5010526;28;20036;-55
2024/03/05 04:37:17;;;;;;;92.20;27.23;;;5.50;99.90;;;;;;5011123;28;20069;-53
2024/03/05 04:39:42;;;;;;;92.18;28.48;;;5.60;99.90;;;;;;5014134;28;20535;-53
2024/03/05 04:42:08;;;;;;;92.55;27.08;;;5.60;99.90;;;;;;5007836;28;20109;-50
2024/03/05 04:44:34;;;;;;;88.30;28.17;;;5.70;99.90;;;;;;4994613;28;20488;-50
2024/03/05 04:47:00;;;;;;;93.10;28.20;;;5.70;99.90;;;;;;5009749;28;20022;-53
2024/03/05 04:49:26;;;;;;;87.10;27.80;;;5.80;99.90;;;;;;5010170;28;20079;-50
2024/03/05 04:51:52;;;;;;;83.45;27.95;;;5.80;99.90;;;;;;5009150;28;20033;-53
2024/03/05 04:54:18;;;;;;;91.43;27.63;;;5.80;99.90;;;;;;5009792;28;20052;-50
2024/03/05 04:56:43;;;;;;;81.53;26.48;;;5.80;99.90;;;;;;5011402;28;20029;-54
2024/03/05 04:59:09;;;;;;;76.15;25.55;;;5.80;99.90;;;;;;5008714;28;20038;-50
2024/03/05 05:01:35;;;;;;;89.00;27.83;;;5.80;99.90;;;;;;5011594;28;20073;-52
2024/03/05 05:04:03;;;;;;;77.50;26.58;;;5.80;99.90;;;;;;5008090;28;20026;-51
2024/03/05 05:06:28;;;;;;;72.75;27.00;;;5.80;99.90;;;;;;5008056;28;20391;-52
2024/03/05 05:08:54;;;;;;;85.28;26.85;;;5.80;99.90;;;;;;4992737;28;20034;-51
2024/03/05 05:11:20;;;;;;;83.00;29.48;;;5.80;99.90;;;;;;4994082;28;20022;-50
2024/03/05 05:13:46;;;;;;;77.18;26.15;;;5.80;99.90;;;;;;5007099;28;20034;-54
2024/03/05 05:16:12;;;;;;;84.00;26.13;;;5.80;99.90;;;;;;5007266;28;20034;-53
2024/03/05 05:18:38;;;;;;;88.95;27.08;;;5.80;99.90;;;;;;5009883;28;20396;-52
2024/03/05 05:21:04;;;;;;;78.65;26.48;;;5.80;99.90;;;;;;5007980;28;20032;-54
2024/03/05 05:23:29;;;;;;;84.75;28.63;;;5.80;99.90;;;;;;5008058;28;20038;-51
2024/03/05 05:25:55;;;;;;;87.63;28.20;;;5.80;99.90;;;;;;5012893;28;20030;-55
2024/03/05 05:28:22;;;;;;;83.80;28.63;;;5.90;99.90;;;;;;5008428;28;20076;-53
2024/03/05 05:30:47;;;;;;;92.65;30.70;;;5.90;99.90;;;;;;5011064;28;20045;-53
2024/03/05 05:33:13;;;;;;;86.97;26.98;;;5.90;99.90;;;;;;5007143;28;20392;-53
2024/03/05 05:35:40;;;;;;;88.53;26.65;;;5.90;99.90;;;;;;5009147;28;20056;-54
2024/03/05 05:38:09;;;;;;;96.57;30.25;;;5.90;99.90;;;;;;5008913;28;20026;-57
2024/03/05 05:40:38;;;;;;;84.90;27.85;;;5.90;99.90;;;;;;5006770;28;20064;-54
2024/03/05 05:43:04;;;;;;;84.38;26.52;;;5.90;99.90;;;;;;5007911;28;20030;-51
2024/03/05 05:45:29;;;;;;;87.65;29.23;;;5.90;99.90;;;;;;5007438;28;20047;-54
2024/03/05 05:47:56;;;;;;;89.53;28.88;;;6.00;99.90;;;;;;5008344;28;20033;-55
2024/03/05 05:50:25;;;;;;;87.25;29.77;;;6.00;99.90;;;;;;5004547;28;20033;-55
2024/03/05 05:52:55;;;;;;;86.45;30.83;;;6.10;99.90;;;;;;5008669;28;20072;-53
2024/03/05 05:55:27;;;;;;;93.50;30.00;;;6.10;99.90;;;;;;5006621;28;20032;-52
2024/03/05 05:57:54;;;;;;;94.00;28.77;;;6.10;99.90;;;;;;5006709;28;20084;-54
2024/03/05 06:00:31;;;;;;;84.05;27.33;;;6.10;99.90;;;;;;5008150;28;20085;-53
2024/03/05 06:02:58;;;;;;;81.40;27.02;;;6.00;99.90;;;;;;4989513;28;20017;-54
2024/03/05 06:05:28;;;;;;;85.80;28.15;;;6.00;99.90;;;;;;5017513;28;20026;-50
2024/03/05 06:07:54;;;;;;;86.10;28.13;;;6.10;99.90;;;;;;5011669;28;20025;-51
2024/03/05 06:10:22;;;;;;;77.82;27.92;;;6.10;99.90;;;;;;5007308;28;20036;-52
2024/03/05 06:12:48;;;;;;;90.43;30.38;;;6.10;99.90;;;;;;5006968;28;20040;-53
2024/03/05 06:15:17;;;;;;;89.68;26.10;;;6.10;99.90;;;;;;5006514;28;20088;-52
2024/03/05 06:17:43;;;;;;;76.45;27.38;;;6.10;99.90;;;;;;5007494;28;20093;-54
2024/03/05 06:20:10;;;;;;;78.10;27.15;;;6.10;99.90;;;;;;5008427;28;20030;-55
2024/03/05 06:22:40;;;;;;;85.97;27.15;;;6.10;99.90;;;;;;5005225;28;20023;-55
2024/03/05 06:25:08;;;;;;;76.78;26.67;;;6.10;99.90;;;;;;5008658;28;20026;-55
2024/03/05 06:27:34;;;;;;;81.38;25.98;;;6.10;99.90;;;;;;4982038;28;20057;-53
2024/03/05 06:30:00;;;;;;;91.75;30.10;;;6.10;99.90;;;;;;5007979;28;20467;-53
2024/03/05 06:32:26;;;;;;;88.82;29.33;;;6.10;99.90;;;;;;5007620;28;20040;-52
2024/03/05 06:34:53;;;;;;;77.50;28.08;;;6.20;99.90;;;;;;5006829;28;20022;-55
2024/03/05 06:37:18;;;;;;;89.25;27.83;;;6.20;99.90;;;;;;5006886;28;20033;-50
2024/03/05 06:39:46;;;;;;;95.22;28.67;;;6.20;99.90;;;;;;5007515;28;20041;-53
2024/03/05 06:42:13;;;;;;;91.40;27.90;;;6.20;99.90;;;;;;5007297;28;20056;-50
2024/03/05 06:44:41;;;;;;;91.70;28.88;;;6.30;99.90;;;;;;5006785;28;20022;-51
2024/03/05 06:47:09;;;;;;;85.28;28.80;;;6.30;99.90;;;;;;5007770;28;20037;-50
2024/03/05 06:49:40;;;;;;;95.78;30.08;;;6.30;99.90;;;;;;5006898;28;20053;-54
2024/03/05 06:57:34;;;;;;;78.95;27.55;;;6.40;99.90;;;;;;5004305;28;20095;-54
2024/03/05 07:00:00;;;;;;;90.22;28.45;;;6.50;99.90;;;;;;5007570;28;20480;-53
2024/03/05 07:02:30;;;;;;;81.55;28.30;;;6.50;99.90;;;;;;4998019;28;20026;-52
2024/03/05 07:04:56;;;;;;;78.30;27.20;;;6.60;99.90;;;;;;5004218;28;20044;-54
2024/03/05 07:07:22;;;;;;;78.18;28.15;;;6.60;99.90;;;;;;5005979;28;20022;-54
2024/03/05 07:09:47;;;;;;;82.18;27.08;;;6.70;99.90;;;;;;5007202;28;20057;-53
2024/03/05 07:12:13;;;;;;;80.35;27.38;;;6.70;99.90;;;;;;5006529;28;20574;-62
2024/03/05 07:14:38;;;;;;;81.03;27.50;;;6.70;99.90;;;;;;5004417;28;20062;-53
2024/03/05 07:17:06;;;;;;;76.82;28.25;;;6.80;99.90;;;;;;5007273;28;20022;-53
2024/03/05 07:19:32;;;;;;;72.10;26.38;;;6.80;99.90;;;;;;5006621;28;20038;-51
2024/03/05 07:21:57;;;;;;;80.20;27.30;;;6.80;99.90;;;;;;5007703;28;20021;-52
2024/03/05 07:24:23;;;;;;;71.55;26.90;;;6.90;99.90;;;;;;5011226;28;20041;-53
2024/03/05 07:26:48;;;;;;;72.43;25.33;;;6.90;99.90;;;;;;5009501;28;20099;-53
2024/03/05 07:29:14;;;;;;;82.65;26.05;;;6.90;99.90;;;;;;5010693;28;20034;-54
2024/03/05 07:31:41;;;;;;;63.20;23.55;;;7.00;99.90;;;;;;5010388;28;20029;-50
2024/03/05 07:34:06;;;;;;;68.35;24.52;;;7.00;99.90;;;;;;5010132;28;20408;-54
2024/03/05 07:36:33;;;;;;;66.22;25.50;;;7.00;99.90;;;;;;5010893;28;20034;-50
2024/03/05 07:38:59;;;;;;;72.97;26.67;;;7.00;99.90;;;;;;5008514;28;20044;-53
2024/03/05 07:41:24;;;;;;;67.75;24.40;;;7.00;99.90;;;;;;5008289;28;20034;-50
2024/03/05 07:43:50;;;;;;;65.55;24.80;;;7.10;99.90;;;;;;5010107;28;20022;-50
2024/03/05 07:46:18;;;;;;;68.60;24.20;;;7.10;99.90;;;;;;5010576;28;20080;-50
2024/03/05 07:48:43;;;;;;;69.93;24.63;;;7.10;99.90;;;;;;5007104;28;20065;-51
2024/03/05 07:51:09;;;;;;;79.18;25.58;;;7.10;99.90;;;;;;5009426;28;20057;-53
2024/03/05 07:53:35;;;;;;;72.82;27.20;;;7.20;99.90;;;;;;5009413;28;20022;-52
2024/03/05 07:56:01;;;;;;;64.60;26.08;;;7.20;99.90;;;;;;5010002;28;20606;-50
2024/03/05 07:58:26;;;;;;;71.07;25.40;;;7.20;99.90;;;;;;5009156;28;20038;-52
2024/03/05 08:00:52;;;;;;;66.60;25.83;;;7.30;99.90;;;;;;5006280;28;20029;-55
2024/03/05 08:03:18;;;;;;;60.05;23.45;;;7.30;99.90;;;;;;5012353;28;20045;-55
2024/03/05 08:05:44;;;;;;;72.18;25.85;;;7.30;99.90;;;;;;5011923;28;20118;-51
2024/03/05 08:08:10;;;;;;;62.30;24.00;;;7.40;99.90;;;;;;5007630;28;20049;-51
2024/03/05 08:10:35;;;;;;;74.75;25.45;;;7.40;99.90;;;;;;5010463;28;20061;-50
2024/03/05 08:13:02;;;;;;;68.78;24.50;;;7.40;99.90;;;;;;5008605;28;20037;-50
2024/03/05 08:15:28;;;;;;;65.30;24.05;;;7.50;99.90;;;;;;5009186;28;20034;-55
2024/03/05 08:17:56;;;;;;;65.00;25.50;;;7.50;99.90;;;;;;5010053;28;20034;-50
2024/03/05 08:20:26;;;;;;;63.75;24.85;;;7.60;99.90;;;;;;5008524;28;20018;-50
2024/03/05 08:22:53;;;;;;;67.88;23.33;;;7.60;99.90;;;;;;5008286;28;20451;-50
2024/03/05 08:25:19;;;;;;;63.63;24.13;;;7.50;99.90;;;;;;5007324;28;20558;-54
2024/03/05 08:27:47;;;;;;;77.35;27.00;;;7.50;99.90;;;;;;5007965;28;20033;-53
2024/03/05 08:30:29;;;;;;;61.58;23.25;;;7.50;99.90;;;;;;5009037;28;20028;-54
2024/03/05 08:32:55;;;;;;;68.60;24.40;;;7.50;99.90;;;;;;5009394;28;20037;-51
2024/03/05 08:35:22;;;;;;;75.70;26.65;;;7.50;99.90;;;;;;5007525;28;21779;-51
2024/03/05 08:37:48;;;;;;;65.07;24.17;;;7.40;99.90;;;;;;5008965;28;20117;-54
2024/03/05 08:40:19;;;;;;;67.03;24.10;;;7.40;99.90;;;;;;5006019;28;20053;-52
2024/03/05 08:42:49;;;;;;;68.63;26.15;;;7.40;99.90;;;;;;4992843;28;20030;-53
2024/03/05 08:45:25;;;;;;;60.03;23.67;;;7.40;99.90;;;;;;5008674;28;20034;-53
2024/03/05 08:47:53;;;;;;;68.32;24.08;;;7.40;99.90;;;;;;5007615;28;20084;-52
2024/03/05 08:50:19;;;;;;;63.83;24.17;;;7.40;99.90;;;;;;5008688;28;20029;-51
2024/03/05 08:52:45;;;;;;;71.32;26.25;;;7.40;99.90;;;;;;5008841;28;20040;-53
2024/03/05 08:55:12;;;;;;;66.70;25.80;;;7.40;99.90;;;;;;5005240;28;20048;-51
2024/03/05 08:57:39;;;;;;;62.45;23.13;;;7.50;99.90;;;;;;5009859;28;20065;-53
2024/03/05 09:00:07;;;;;;;71.68;25.85;;;7.50;99.90;;;;;;5006511;28;20122;-51
2024/03/05 09:02:32;;;;;;;58.25;24.75;;;7.50;99.90;;;;;;5009829;28;20026;-54
2024/03/05 09:04:59;;;;;;;66.72;25.70;;;7.50;99.90;;;;;;5006462;28;20030;-55
2024/03/05 09:07:25;;;;;;;66.05;23.98;;;7.50;99.90;;;;;;5007478;28;20014;-54
2024/03/05 09:09:50;;;;;;;74.75;26.30;;;7.50;99.90;;;;;;5006074;28;20037;-50
2024/03/05 09:12:16;;;;;;;63.47;24.20;;;7.50;99.90;;;;;;4988971;28;20034;-50
2024/03/05 09:14:42;;;;;;;66.22;22.70;;;7.50;99.90;;;;;;5003602;28;20034;-53
2024/03/05 09:17:09;;;;;;;68.53;24.55;;;7.50;99.90;;;;;;5005770;28;20048;-54
2024/03/05 09:19:35;;;;;;;69.75;26.00;;;7.50;99.90;;;;;;5007164;28;20083;-54
2024/03/05 09:22:04;;;;;;;72.28;24.83;;;7.50;99.90;;;;;;5005719;28;20026;-54
2024/03/05 09:24:35;;;;;;;65.72;24.83;;;7.50;99.90;;;;;;5007544;28;20030;-51
2024/03/05 09:27:01;;;;;;;66.20;25.58;;;7.60;99.90;;;;;;5016504;23;20073;-54
2024/03/05 09:29:28;;;;;;;66.22;25.48;;;7.60;99.90;;;;;;4999900;28;20030;-52
2024/03/05 09:31:53;;;;;;;68.22;25.38;;;7.50;99.90;;;;;;5001713;28;21574;-54
2024/03/05 09:34:19;;;;;;;72.03;25.10;;;7.50;99.90;;;;;;5004695;28;20037;-54
2024/03/05 09:36:45;;;;;;;62.75;23.92;;;7.50;99.90;;;;;;5005433;28;20029;-53
2024/03/05 09:39:11;;;;;;;68.20;25.85;;;7.60;99.90;;;;;;4990465;28;20034;-57
2024/03/05 09:41:41;;;;;;;78.95;26.23;;;7.60;99.90;;;;;;4988899;28;20030;-55
2024/03/05 09:44:08;;;;;;;71.63;25.92;;;7.60;99.90;;;;;;4987339;28;20105;-53
2024/03/05 09:46:37;;;;;;;69.47;24.95;;;7.60;99.90;;;;;;4985479;28;20030;-54
2024/03/05 09:49:05;;;;;;;67.00;23.90;;;7.60;99.90;;;;;;4989137;28;20582;-55
2024/03/05 09:51:33;;;;;;;72.30;26.55;;;7.70;99.90;;;;;;4987800;28;20432;-56
2024/03/05 09:53:59;;;;;;;70.13;25.20;;;7.70;99.90;;;;;;4988980;28;20030;-54
2024/03/05 09:56:24;;;;;;;73.93;25.00;;;7.70;99.90;;;;;;4990035;28;20041;-58
2024/03/05 09:58:51;;;;;;;70.40;26.50;;;7.70;99.90;;;;;;4990042;28;20111;-54
2024/03/05 10:01:17;;;;;;;72.57;24.35;;;7.70;99.90;;;;;;4988823;28;20038;-55
2024/03/05 10:03:43;;;;;;;77.82;27.85;;;7.80;99.90;;;;;;4970636;28;20026;-53
2024/03/05 10:06:11;;;;;;;69.13;24.75;;;7.80;99.90;;;;;;4989495;28;20499;-51
2024/03/05 10:08:37;;;;;;;90.63;32.55;;;7.80;99.90;;;;;;4987531;28;20562;-57
2024/03/05 10:11:04;;;;;;;74.03;27.10;;;7.80;99.90;;;;;;4983368;28;20114;-54
2024/03/05 10:13:35;;;;;;;71.45;26.55;;;7.80;99.90;;;;;;4987935;28;20042;-55
2024/03/05 10:16:22;;;;;;;67.45;26.48;;;7.80;99.90;;;;;;4987369;28;20443;-52
2024/03/05 10:18:49;;;;;;;69.35;25.42;;;7.90;99.90;;;;;;4987220;28;20041;-55
2024/03/05 10:21:25;;;;;;;65.55;24.10;;;7.90;99.90;;;;;;4987411;28;20053;-53
2024/03/05 10:24:00;;;;;;;74.35;25.60;;;7.90;99.90;;;;;;4986626;28;20022;-55
2024/03/05 10:26:30;;;;;;;70.07;27.77;;;7.90;99.90;;;;;;4987919;28;20464;-54
2024/03/05 10:29:08;;;;;;;73.60;25.52;;;8.00;99.90;;;;;;4987805;28;20054;-53
2024/03/05 10:31:34;;;;;;;76.68;25.77;;;8.00;99.90;;;;;;4986573;28;20038;-56
2024/03/05 10:33:59;;;;;;;66.53;24.52;;;8.10;99.90;;;;;;4989686;28;20030;-51
2024/03/05 10:36:36;;;;;;;61.70;25.40;;;8.20;99.90;;;;;;4987162;28;20146;-57
2024/03/05 10:39:03;;;;;;;61.70;24.20;;;8.30;99.90;;;;;;4988077;28;20034;-51
2024/03/05 10:41:30;;;;;;;64.97;24.83;;;8.30;99.90;;;;;;4987603;28;20507;-52
2024/03/05 10:44:00;;;;;;;63.38;25.20;;;8.40;99.90;;;;;;4987934;28;20026;-51
2024/03/05 10:46:30;;;;;;;58.70;23.77;;;8.40;99.90;;;;;;4986670;28;20034;-51
2024/03/05 10:49:00;;;;;;;64.35;23.70;;;8.50;99.90;;;;;;4987658;28;20037;-52
2024/03/05 10:51:30;;;;;;;58.58;22.38;;;8.50;99.90;;;;;;4988548;28;20373;-51
2024/03/05 10:53:59;;;;;;;59.72;23.17;;;8.60;99.90;;;;;;4977721;28;20042;-55
2024/03/05 10:56:25;;;;;;;63.20;25.73;;;8.60;99.90;;;;;;4973268;28;20035;-54
2024/03/05 11:01:23;;;;;;;63.60;25.85;;;8.90;99.90;;;;;;4990221;28;20084;-53
2024/03/05 11:03:52;;;;;;;65.32;26.15;;;8.90;99.90;;;;;;4991518;28;20091;-52
2024/03/05 11:06:20;;;;;;;199.85;75.40;;;9.10;99.90;;;;;;4989829;28;20080;-52
2024/03/05 11:08:48;;;;;;;92.70;37.80;;;9.10;99.90;;;;;;4993053;28;20137;-58
2024/03/05 11:11:22;;;;;;;64.53;25.95;;;9.20;99.90;;;;;;4989298;28;20057;-56
2024/03/05 11:13:50;;;;;;;65.80;29.25;;;9.20;99.90;;;;;;4986634;28;20026;-54
2024/03/05 11:16:16;;;;;;;83.60;42.35;;;9.30;99.90;;;;;;4987795;28;20058;-56
2024/03/05 11:18:44;;;;;;;71.93;32.15;;;9.40;99.90;;;;;;4989215;28;20395;-57
2024/03/05 11:21:12;;;;;;;67.78;26.67;;;9.30;99.90;;;;;;4994077;28;20802;-57
2024/03/05 11:23:41;;;;;;;54.42;23.65;;;9.40;99.90;;;;;;4988881;28;20499;-54
2024/03/05 11:26:16;;;;;;;57.55;25.50;;;9.30;99.90;;;;;;4993611;28;20106;-51
2024/03/05 11:28:41;;;;;;;60.95;24.27;;;9.20;99.90;;;;;;4989584;28;20052;-56
2024/03/05 11:31:16;;;;;;;66.30;27.55;;;9.20;99.90;;;;;;4990235;28;20034;-55
2024/03/05 11:33:57;;;;;;;80.50;31.60;;;9.20;99.90;;;;;;4991505;28;20029;-56
2024/03/05 11:36:23;;;;;;;56.08;25.27;;;9.20;99.90;;;;;;4990515;28;20035;-53
2024/03/05 11:38:56;;;;;;;266.60;94.18;;;9.20;99.90;;;;;;4990817;28;20042;-57
2024/03/05 11:41:25;;;;;;;275.40;100.97;;;9.10;99.90;;;;;;4990363;28;20073;-55
2024/03/05 11:43:52;;;;;;;87.22;39.22;;;9.10;99.90;;;;;;4991672;28;20019;-52
2024/03/05 11:46:40;;;;;;;64.60;27.60;;;9.10;99.90;;;;;;4991385;28;20030;-55
2024/03/05 11:49:06;;;;;;;76.80;32.08;;;9.10;99.90;;;;;;4987823;28;20085;-55
2024/03/05 11:51:32;;;;;;;94.30;40.65;;;9.10;99.90;;;;;;4991821;28;20064;-58
2024/03/05 11:53:58;;;;;;;61.00;26.30;;;9.10;99.90;;;;;;4976923;28;20081;-54
2024/03/05 11:56:23;;;;;;;119.35;47.75;;;9.00;99.90;;;;;;4990513;28;20596;-52
2024/03/05 11:58:55;;;;;;;78.55;33.90;;;9.00;99.90;;;;;;4990334;28;20089;-52
2024/03/05 12:01:23;;;;;;;59.08;23.95;;;9.10;99.90;;;;;;4991090;28;20086;-55
2024/03/05 12:03:58;;;;;;;54.10;22.60;;;9.00;99.90;;;;;;4989620;28;20023;-52
2024/03/05 12:06:24;;;;;;;63.58;25.10;;;9.00;99.90;;;;;;4989157;28;20022;-52
2024/03/05 12:08:53;;;;;;;52.15;21.88;;;9.00;99.90;;;;;;4991521;28;20089;-52
2024/03/05 12:11:19;;;;;;;51.70;19.10;;;9.00;99.90;;;;;;4986973;28;20052;-52
2024/03/05 12:13:47;;;;;;;50.40;19.55;;;9.00;99.90;;;;;;4987542;28;20042;-55
2024/03/05 12:16:14;;;;;;;47.25;20.42;;;9.00;99.90;;;;;;4990793;28;20034;-58
2024/03/05 12:18:43;;;;;;;51.78;22.98;;;9.00;99.90;;;;;;4988370;28;20717;-52
2024/03/05 12:21:10;;;;;;;96.18;37.20;;;9.00;99.90;;;;;;4991896;28;20027;-51
2024/03/05 12:23:36;;;;;;;56.95;25.58;;;8.90;99.90;;;;;;4988989;28;20026;-52
2024/03/05 12:26:03;;;;;;;59.58;25.83;;;8.90;99.90;;;;;;4990483;28;20014;-51
2024/03/05 12:28:31;;;;;;;61.67;25.77;;;8.90;99.90;;;;;;4987413;28;20511;-52
2024/03/05 12:30:56;;;;;;;56.92;23.98;;;8.90;99.90;;;;;;4989180;28;20041;-52
2024/03/05 12:33:26;;;;;;;41.65;20.63;;;8.90;99.90;;;;;;4989295;28;20030;-52
2024/03/05 12:35:52;;;;;;;43.97;20.02;;;8.90;99.90;;;;;;4991428;28;20026;-57
2024/03/05 12:38:18;;;;;;;45.58;19.02;;;9.00;99.90;;;;;;4988577;28;20046;-54
2024/03/05 12:40:43;;;;;;;41.22;18.30;;;9.10;99.90;;;;;;4987865;28;20046;-58
2024/03/05 12:43:10;;;;;;;37.72;17.05;;;9.20;99.90;;;;;;4987948;28;20416;-55